SAS39C ESSA-EKCH
Flight info
| Callsign | SAS39C |
|---|---|
| Flight time | 0h 54m |
| Altitude | 38000 |
| Route | PETEV N872 ELPAX DCT TOKSI N872 ERNOV |
| Aircraft | A320/M-SDE3FGHIJ1RWXYZ/ALB1 |
Departure
| Time | 2026-04-25 19:11 |
|---|---|
| Airport | Stockholm-Arlanda Airport (ESSA) |
Arrival
| Time | 2026-04-25 20:05 |
|---|---|
| Airport | Copenhagen Kastrup Airport (EKCH) |
| Time | Latitude | Longitude | Altitude | Speed | Heading |
|---|---|---|---|---|---|
| 2026-04-25 18:41 | 59.65366 | 17.92952 | 110 ft | 0 kts | 139° |
| 2026-04-25 19:02 | 59.65370 | 17.92946 | 112 ft | 2 kts | 137° |
| 2026-04-25 19:02 | 59.65384 | 17.92918 | 111 ft | 3 kts | 123° |
| 2026-04-25 19:02 | 59.65392 | 17.92884 | 112 ft | 3 kts | 99° |
| 2026-04-25 19:03 | 59.65392 | 17.92846 | 111 ft | 0 kts | 70° |
| 2026-04-25 19:05 | 59.65398 | 17.92878 | 112 ft | 0 kts | 70° |
| 2026-04-25 19:06 | 59.65398 | 17.92882 | 112 ft | 1 kts | 70° |
| 2026-04-25 19:07 | 59.65439 | 17.92952 | 112 ft | 6 kts | 1° |
| 2026-04-25 19:07 | 59.65491 | 17.92928 | 111 ft | 10 kts | 344° |
| 2026-04-25 19:08 | 59.65596 | 17.93131 | 109 ft | 14 kts | 76° |
| 2026-04-25 19:08 | 59.65634 | 17.93308 | 109 ft | 14 kts | 50° |
| 2026-04-25 19:09 | 59.65845 | 17.93676 | 117 ft | 2 kts | 27° |
| 2026-04-25 19:09 | 59.65849 | 17.93682 | 117 ft | 2 kts | 39° |
| 2026-04-25 19:10 | 59.65856 | 17.93716 | 117 ft | 0 kts | 75° |
| 2026-04-25 19:10 | 59.65860 | 17.93746 | 115 ft | 12 kts | 75° |
| 2026-04-25 19:10 | 59.65948 | 17.94408 | 124 ft | 85 kts | 75° |
| 2026-04-25 19:10 | 59.66138 | 17.95924 | 122 ft | 139 kts | 76° |
| 2026-04-25 19:11 | 59.66402 | 17.97930 | 399 ft | 156 kts | 72° |
| 2026-04-25 19:11 | 59.66668 | 18.00015 | 1015 ft | 156 kts | 72° |
| 2026-04-25 19:11 | 59.66937 | 18.02147 | 1558 ft | 163 kts | 68° |
| 2026-04-25 19:11 | 59.67277 | 18.04433 | 1817 ft | 182 kts | 59° |
| 2026-04-25 19:12 | 59.68033 | 18.06512 | 2190 ft | 190 kts | 35° |
| 2026-04-25 19:12 | 59.69167 | 18.07723 | 2963 ft | 183 kts | 11° |
| 2026-04-25 19:12 | 59.70413 | 18.07837 | 3844 ft | 180 kts | 349° |
| 2026-04-25 19:12 | 59.71568 | 18.06876 | 4670 ft | 185 kts | 328° |
| 2026-04-25 19:13 | 59.72427 | 18.04947 | 5447 ft | 194 kts | 304° |
| 2026-04-25 19:13 | 59.72772 | 18.02286 | 6240 ft | 210 kts | 278° |
| 2026-04-25 19:13 | 59.72412 | 17.99364 | 6977 ft | 228 kts | 255° |
| 2026-04-25 19:13 | 59.71756 | 17.96496 | 7761 ft | 229 kts | 255° |
| 2026-04-25 19:14 | 59.71093 | 17.93608 | 8530 ft | 230 kts | 254° |
| 2026-04-25 19:14 | 59.70868 | 17.92633 | 8816 ft | 230 kts | 254° |
| 2026-04-25 19:14 | 59.69715 | 17.87449 | 9455 ft | 267 kts | 255° |
| 2026-04-25 19:14 | 59.69136 | 17.83894 | 9935 ft | 276 kts | 263° |
| 2026-04-25 19:15 | 59.68662 | 17.80034 | 10131 ft | 300 kts | 263° |
| 2026-04-25 19:15 | 59.68149 | 17.75905 | 10526 ft | 315 kts | 262° |
| 2026-04-25 19:15 | 59.67499 | 17.71699 | 11208 ft | 326 kts | 252° |
| 2026-04-25 19:15 | 59.66297 | 17.67817 | 11970 ft | 338 kts | 236° |
| 2026-04-25 19:16 | 59.64543 | 17.64617 | 12743 ft | 350 kts | 219° |
| 2026-04-25 19:16 | 59.62339 | 17.62453 | 13511 ft | 360 kts | 202° |
| 2026-04-25 19:16 | 59.59933 | 17.60982 | 14184 ft | 363 kts | 201° |
| 2026-04-25 19:16 | 59.57502 | 17.59512 | 14810 ft | 367 kts | 201° |
| 2026-04-25 19:17 | 59.55053 | 17.58017 | 15410 ft | 370 kts | 203° |
| 2026-04-25 19:17 | 59.52700 | 17.56018 | 16016 ft | 368 kts | 213° |
| 2026-04-25 19:17 | 59.50573 | 17.53247 | 16627 ft | 366 kts | 224° |
| 2026-04-25 19:17 | 59.48668 | 17.49923 | 17240 ft | 367 kts | 227° |
| 2026-04-25 19:18 | 59.46738 | 17.46493 | 17858 ft | 371 kts | 227° |
| 2026-04-25 19:18 | 59.44802 | 17.43087 | 18419 ft | 375 kts | 227° |
| 2026-04-25 19:18 | 59.42841 | 17.39658 | 18981 ft | 379 kts | 226° |
| 2026-04-25 19:18 | 59.40864 | 17.36208 | 19556 ft | 382 kts | 226° |
| 2026-04-25 19:19 | 59.38873 | 17.32730 | 20141 ft | 384 kts | 226° |
| 2026-04-25 19:19 | 59.36868 | 17.29232 | 20721 ft | 387 kts | 226° |
| 2026-04-25 19:19 | 59.34848 | 17.25707 | 21294 ft | 390 kts | 226° |
| 2026-04-25 19:19 | 59.34163 | 17.24511 | 21478 ft | 391 kts | 226° |
| 2026-04-25 19:20 | 59.30759 | 17.18591 | 22383 ft | 396 kts | 226° |
| 2026-04-25 19:20 | 59.28688 | 17.15002 | 22948 ft | 399 kts | 226° |
| 2026-04-25 19:20 | 59.26607 | 17.11399 | 23453 ft | 401 kts | 226° |
| 2026-04-25 19:20 | 59.24508 | 17.07765 | 23859 ft | 405 kts | 226° |
| 2026-04-25 19:21 | 59.22388 | 17.04105 | 24258 ft | 408 kts | 226° |
| 2026-04-25 19:21 | 59.18073 | 16.96753 | 25017 ft | 416 kts | 225° |
| 2026-04-25 19:21 | 59.15848 | 16.93109 | 25393 ft | 420 kts | 224° |
| 2026-04-25 19:22 | 59.13585 | 16.89467 | 25755 ft | 424 kts | 224° |
| 2026-04-25 19:22 | 59.11302 | 16.85816 | 26114 ft | 427 kts | 224° |
| 2026-04-25 19:22 | 59.06669 | 16.78391 | 26689 ft | 436 kts | 225° |
| 2026-04-25 19:23 | 59.04319 | 16.74611 | 27011 ft | 440 kts | 225° |
| 2026-04-25 19:23 | 58.99542 | 16.66918 | 27692 ft | 447 kts | 225° |
| 2026-04-25 19:23 | 58.97173 | 16.63107 | 28027 ft | 450 kts | 225° |
| 2026-04-25 19:24 | 58.94718 | 16.59176 | 28361 ft | 453 kts | 225° |
| 2026-04-25 19:24 | 58.93102 | 16.56598 | 28592 ft | 456 kts | 225° |
| 2026-04-25 19:24 | 58.88174 | 16.48744 | 29248 ft | 462 kts | 226° |
| 2026-04-25 19:25 | 58.83171 | 16.40791 | 29859 ft | 469 kts | 226° |
| 2026-04-25 19:25 | 58.80643 | 16.36786 | 30127 ft | 472 kts | 226° |
| 2026-04-25 19:25 | 58.78094 | 16.32758 | 30387 ft | 475 kts | 226° |
| 2026-04-25 19:26 | 58.75538 | 16.28735 | 30748 ft | 475 kts | 225° |
| 2026-04-25 19:26 | 58.72981 | 16.24721 | 31122 ft | 474 kts | 225° |
| 2026-04-25 19:26 | 58.70421 | 16.20709 | 31501 ft | 474 kts | 225° |
| 2026-04-25 19:26 | 58.67866 | 16.16708 | 31876 ft | 474 kts | 225° |
| 2026-04-25 19:27 | 58.65309 | 16.12709 | 32251 ft | 474 kts | 225° |
| 2026-04-25 19:27 | 58.63578 | 16.10007 | 32510 ft | 474 kts | 225° |
| 2026-04-25 19:27 | 58.60154 | 16.04667 | 33022 ft | 474 kts | 225° |
| 2026-04-25 19:27 | 58.57596 | 16.00682 | 33392 ft | 474 kts | 225° |
| 2026-04-25 19:28 | 58.55036 | 15.96702 | 33795 ft | 474 kts | 225° |
| 2026-04-25 19:28 | 58.52480 | 15.92739 | 34135 ft | 473 kts | 225° |
| 2026-04-25 19:28 | 58.49918 | 15.88779 | 34439 ft | 473 kts | 225° |
| 2026-04-25 19:28 | 58.47362 | 15.84828 | 34743 ft | 472 kts | 225° |
| 2026-04-25 19:29 | 58.44807 | 15.80884 | 35032 ft | 472 kts | 225° |
| 2026-04-25 19:29 | 58.42255 | 15.76959 | 35321 ft | 471 kts | 224° |
| 2026-04-25 19:29 | 58.39702 | 15.73042 | 35598 ft | 471 kts | 224° |
| 2026-04-25 19:29 | 58.37152 | 15.69132 | 35836 ft | 470 kts | 225° |
| 2026-04-25 19:30 | 58.34598 | 15.65226 | 36042 ft | 471 kts | 225° |
| 2026-04-25 19:30 | 58.32042 | 15.61329 | 36294 ft | 471 kts | 225° |
| 2026-04-25 19:30 | 58.29482 | 15.57438 | 36553 ft | 470 kts | 225° |
| 2026-04-25 19:30 | 58.26927 | 15.53561 | 36806 ft | 470 kts | 225° |
| 2026-04-25 19:31 | 58.24375 | 15.49692 | 37049 ft | 469 kts | 225° |
| 2026-04-25 19:31 | 58.21827 | 15.45836 | 37288 ft | 469 kts | 224° |
| 2026-04-25 19:31 | 58.19277 | 15.41985 | 37519 ft | 468 kts | 224° |
| 2026-04-25 19:31 | 58.16726 | 15.38135 | 37736 ft | 468 kts | 224° |
| 2026-04-25 19:32 | 58.14178 | 15.34294 | 37856 ft | 469 kts | 224° |
| 2026-04-25 19:32 | 58.11615 | 15.30437 | 37860 ft | 473 kts | 224° |
| 2026-04-25 19:32 | 58.07284 | 15.23940 | 37867 ft | 475 kts | 224° |
| 2026-04-25 19:33 | 58.01262 | 15.14938 | 37864 ft | 475 kts | 224° |
| 2026-04-25 19:33 | 57.96037 | 15.07165 | 37863 ft | 475 kts | 224° |
| 2026-04-25 19:34 | 57.90841 | 14.99465 | 37870 ft | 476 kts | 224° |
| 2026-04-25 19:34 | 57.85631 | 14.91786 | 37880 ft | 477 kts | 224° |
| 2026-04-25 19:35 | 57.80407 | 14.84103 | 37888 ft | 477 kts | 224° |
| 2026-04-25 19:35 | 57.75179 | 14.76436 | 37891 ft | 477 kts | 224° |
| 2026-04-25 19:36 | 57.69942 | 14.68797 | 37893 ft | 478 kts | 224° |
| 2026-04-25 19:36 | 57.64689 | 14.61174 | 37749 ft | 478 kts | 224° |
| 2026-04-25 19:37 | 57.62065 | 14.57374 | 37459 ft | 478 kts | 224° |
| 2026-04-25 19:37 | 57.59443 | 14.53574 | 37203 ft | 478 kts | 225° |
| 2026-04-25 19:37 | 57.56819 | 14.49774 | 36855 ft | 478 kts | 225° |
| 2026-04-25 19:37 | 57.54183 | 14.45970 | 36482 ft | 479 kts | 225° |
| 2026-04-25 19:38 | 57.51545 | 14.42177 | 36112 ft | 480 kts | 225° |
| 2026-04-25 19:38 | 57.48899 | 14.38386 | 35748 ft | 481 kts | 225° |
| 2026-04-25 19:38 | 57.46242 | 14.34584 | 35393 ft | 482 kts | 225° |
| 2026-04-25 19:38 | 57.43582 | 14.30783 | 35040 ft | 483 kts | 225° |
| 2026-04-25 19:39 | 57.40920 | 14.26985 | 34701 ft | 482 kts | 225° |
| 2026-04-25 19:39 | 57.38269 | 14.23207 | 34317 ft | 480 kts | 225° |
| 2026-04-25 19:39 | 57.35628 | 14.19455 | 33983 ft | 477 kts | 226° |
| 2026-04-25 19:39 | 57.32997 | 14.15723 | 33513 ft | 475 kts | 226° |
| 2026-04-25 19:40 | 57.30384 | 14.12019 | 33037 ft | 472 kts | 226° |
| 2026-04-25 19:40 | 57.27782 | 14.08337 | 32577 ft | 469 kts | 226° |
| 2026-04-25 19:40 | 57.25195 | 14.04682 | 32149 ft | 467 kts | 226° |
| 2026-04-25 19:40 | 57.22619 | 14.01055 | 31700 ft | 464 kts | 226° |
| 2026-04-25 19:41 | 57.20059 | 13.97458 | 31264 ft | 461 kts | 227° |
| 2026-04-25 19:41 | 57.17514 | 13.93883 | 30829 ft | 459 kts | 227° |
| 2026-04-25 19:41 | 57.14979 | 13.90327 | 30361 ft | 457 kts | 227° |
| 2026-04-25 19:41 | 57.14127 | 13.89131 | 30222 ft | 456 kts | 227° |
| 2026-04-25 19:42 | 57.09919 | 13.83243 | 29415 ft | 451 kts | 227° |
| 2026-04-25 19:42 | 57.07424 | 13.79763 | 28916 ft | 448 kts | 227° |
| 2026-04-25 19:42 | 57.04947 | 13.76320 | 28426 ft | 445 kts | 227° |
| 2026-04-25 19:42 | 57.02479 | 13.72895 | 27942 ft | 443 kts | 227° |
| 2026-04-25 19:43 | 57.00034 | 13.69502 | 27462 ft | 440 kts | 227° |
| 2026-04-25 19:43 | 56.97600 | 13.66130 | 26993 ft | 437 kts | 227° |
| 2026-04-25 19:43 | 56.95182 | 13.62781 | 26455 ft | 435 kts | 227° |
| 2026-04-25 19:43 | 56.92772 | 13.59450 | 25999 ft | 434 kts | 228° |
| 2026-04-25 19:44 | 56.90367 | 13.56129 | 25496 ft | 433 kts | 229° |
| 2026-04-25 19:44 | 56.87965 | 13.52816 | 25061 ft | 432 kts | 229° |
| 2026-04-25 19:44 | 56.85566 | 13.49522 | 24634 ft | 431 kts | 229° |
| 2026-04-25 19:44 | 56.83168 | 13.46239 | 24205 ft | 430 kts | 228° |
| 2026-04-25 19:45 | 56.80776 | 13.42971 | 23778 ft | 429 kts | 228° |
| 2026-04-25 19:45 | 56.78395 | 13.39714 | 23349 ft | 428 kts | 228° |
| 2026-04-25 19:45 | 56.76019 | 13.36469 | 22840 ft | 426 kts | 227° |
| 2026-04-25 19:45 | 56.73646 | 13.33239 | 22333 ft | 424 kts | 227° |
| 2026-04-25 19:46 | 56.71289 | 13.30035 | 21841 ft | 422 kts | 227° |
| 2026-04-25 19:46 | 56.68944 | 13.26844 | 21357 ft | 420 kts | 227° |
| 2026-04-25 19:46 | 56.66613 | 13.23676 | 20833 ft | 417 kts | 227° |
| 2026-04-25 19:46 | 56.64294 | 13.20526 | 20364 ft | 414 kts | 227° |
| 2026-04-25 19:47 | 56.61994 | 13.17408 | 19904 ft | 411 kts | 226° |
| 2026-04-25 19:47 | 56.59712 | 13.14321 | 19450 ft | 408 kts | 226° |
| 2026-04-25 19:47 | 56.57442 | 13.11259 | 18998 ft | 404 kts | 226° |
| 2026-04-25 19:47 | 56.55191 | 13.08236 | 18559 ft | 401 kts | 225° |
| 2026-04-25 19:48 | 56.52960 | 13.05248 | 18116 ft | 397 kts | 225° |
| 2026-04-25 19:48 | 56.50751 | 13.02295 | 17598 ft | 393 kts | 225° |
| 2026-04-25 19:48 | 56.48565 | 12.99376 | 17086 ft | 388 kts | 224° |
| 2026-04-25 19:48 | 56.46377 | 12.96454 | 16590 ft | 383 kts | 224° |
| 2026-04-25 19:49 | 56.44246 | 12.93605 | 16103 ft | 379 kts | 224° |
| 2026-04-25 19:49 | 56.43561 | 12.92690 | 15919 ft | 378 kts | 224° |
| 2026-04-25 19:49 | 56.40050 | 12.88009 | 15126 ft | 371 kts | 224° |
| 2026-04-25 19:49 | 56.37983 | 12.85258 | 14663 ft | 367 kts | 224° |
| 2026-04-25 19:50 | 56.33916 | 12.79848 | 13751 ft | 359 kts | 223° |
| 2026-04-25 19:50 | 56.31868 | 12.77302 | 13252 ft | 360 kts | 214° |
| 2026-04-25 19:50 | 56.29545 | 12.75560 | 12753 ft | 361 kts | 205° |
| 2026-04-25 19:51 | 56.27199 | 12.73998 | 12256 ft | 358 kts | 205° |
| 2026-04-25 19:51 | 56.24868 | 12.72474 | 11784 ft | 355 kts | 204° |
| 2026-04-25 19:51 | 56.22558 | 12.70977 | 11351 ft | 351 kts | 204° |
| 2026-04-25 19:51 | 56.20288 | 12.69510 | 11061 ft | 343 kts | 204° |
| 2026-04-25 19:52 | 56.18065 | 12.68071 | 10762 ft | 336 kts | 204° |
| 2026-04-25 19:52 | 56.15887 | 12.66653 | 10480 ft | 330 kts | 204° |
| 2026-04-25 19:52 | 56.13766 | 12.65270 | 10201 ft | 325 kts | 204° |
| 2026-04-25 19:52 | 56.11653 | 12.63893 | 9923 ft | 321 kts | 204° |
| 2026-04-25 19:53 | 56.09573 | 12.62536 | 9627 ft | 316 kts | 204° |
| 2026-04-25 19:53 | 56.07516 | 12.61191 | 9319 ft | 312 kts | 204° |
| 2026-04-25 19:53 | 56.05487 | 12.59867 | 9019 ft | 309 kts | 203° |
| 2026-04-25 19:53 | 56.03479 | 12.58560 | 8724 ft | 306 kts | 203° |
| 2026-04-25 19:54 | 56.01487 | 12.57266 | 8421 ft | 304 kts | 203° |
| 2026-04-25 19:54 | 55.99510 | 12.55987 | 8120 ft | 302 kts | 202° |
| 2026-04-25 19:54 | 55.97539 | 12.54721 | 7913 ft | 300 kts | 202° |
| 2026-04-25 19:54 | 55.96874 | 12.54293 | 7899 ft | 300 kts | 202° |
| 2026-04-25 19:55 | 55.93609 | 12.52187 | 7788 ft | 300 kts | 203° |
| 2026-04-25 19:55 | 55.91619 | 12.50899 | 7585 ft | 301 kts | 203° |
| 2026-04-25 19:55 | 55.89654 | 12.49632 | 7377 ft | 300 kts | 203° |
| 2026-04-25 19:55 | 55.87692 | 12.48368 | 7172 ft | 300 kts | 203° |
| 2026-04-25 19:56 | 55.85733 | 12.47107 | 6963 ft | 299 kts | 202° |
| 2026-04-25 19:56 | 55.83781 | 12.45853 | 6763 ft | 298 kts | 202° |
| 2026-04-25 19:56 | 55.81834 | 12.44606 | 6595 ft | 297 kts | 202° |
| 2026-04-25 19:56 | 55.79891 | 12.43364 | 6418 ft | 297 kts | 202° |
| 2026-04-25 19:57 | 55.78601 | 12.42543 | 6295 ft | 297 kts | 202° |
| 2026-04-25 19:57 | 55.76665 | 12.41311 | 6113 ft | 295 kts | 202° |
| 2026-04-25 19:57 | 55.74736 | 12.40083 | 5912 ft | 294 kts | 202° |
| 2026-04-25 19:57 | 55.72812 | 12.38856 | 5733 ft | 294 kts | 202° |
| 2026-04-25 19:58 | 55.70892 | 12.37628 | 5534 ft | 293 kts | 202° |
| 2026-04-25 19:58 | 55.69008 | 12.36422 | 5251 ft | 282 kts | 202° |
| 2026-04-25 19:58 | 55.67195 | 12.35267 | 4997 ft | 271 kts | 204° |
| 2026-04-25 19:58 | 55.65455 | 12.34161 | 4740 ft | 263 kts | 204° |
| 2026-04-25 19:59 | 55.63675 | 12.33437 | 4474 ft | 265 kts | 180° |
| 2026-04-25 19:59 | 55.61851 | 12.33887 | 4202 ft | 265 kts | 167° |
| 2026-04-25 19:59 | 55.60065 | 12.34624 | 3914 ft | 262 kts | 166° |
| 2026-04-25 19:59 | 55.58318 | 12.35387 | 3623 ft | 255 kts | 165° |
| 2026-04-25 20:00 | 55.56626 | 12.36141 | 3344 ft | 247 kts | 165° |
| 2026-04-25 20:00 | 55.55511 | 12.36642 | 3150 ft | 243 kts | 164° |
| 2026-04-25 20:00 | 55.53481 | 12.38273 | 2777 ft | 239 kts | 147° |
| 2026-04-25 20:00 | 55.52065 | 12.39788 | 2525 ft | 237 kts | 146° |
| 2026-04-25 20:01 | 55.50007 | 12.43657 | 2054 ft | 203 kts | 89° |
| 2026-04-25 20:01 | 55.50150 | 12.45861 | 1985 ft | 167 kts | 55° |
| 2026-04-25 20:01 | 55.50796 | 12.47397 | 1992 ft | 149 kts | 31° |
| 2026-04-25 20:02 | 55.51572 | 12.48585 | 1949 ft | 147 kts | 30° |
| 2026-04-25 20:02 | 55.52344 | 12.49768 | 1816 ft | 148 kts | 31° |
| 2026-04-25 20:02 | 55.53108 | 12.50944 | 1632 ft | 141 kts | 31° |
| 2026-04-25 20:02 | 55.53823 | 12.52044 | 1455 ft | 135 kts | 31° |
| 2026-04-25 20:03 | 55.54542 | 12.53147 | 1276 ft | 138 kts | 30° |
| 2026-04-25 20:03 | 55.55272 | 12.54269 | 1100 ft | 139 kts | 31° |
| 2026-04-25 20:03 | 55.55990 | 12.55374 | 897 ft | 137 kts | 33° |
| 2026-04-25 20:03 | 55.56703 | 12.56472 | 702 ft | 137 kts | 33° |
| 2026-04-25 20:04 | 55.57419 | 12.57576 | 527 ft | 138 kts | 34° |
| 2026-04-25 20:04 | 55.58143 | 12.58692 | 353 ft | 138 kts | 32° |
| 2026-04-25 20:04 | 55.58867 | 12.59808 | 162 ft | 138 kts | 33° |
| 2026-04-25 20:04 | 55.59585 | 12.60921 | 23 ft | 132 kts | 36° |
| 2026-04-25 20:05 | 55.60178 | 12.61811 | 19 ft | 93 kts | 43° |
| 2026-04-25 20:05 | 55.60588 | 12.62460 | 20 ft | 63 kts | 41° |
| 2026-04-25 20:05 | 55.60818 | 12.62781 | 18 ft | 37 kts | 27° |
| 2026-04-25 20:05 | 55.60992 | 12.62875 | 17 ft | 22 kts | 9° |
| 2026-04-25 20:06 | 55.61136 | 12.62944 | 19 ft | 21 kts | 28° |
| 2026-04-25 20:06 | 55.61250 | 12.63111 | 17 ft | 22 kts | 42° |
| 2026-04-25 20:06 | 55.61365 | 12.63289 | 17 ft | 21 kts | 41° |
| 2026-04-25 20:06 | 55.61483 | 12.63473 | 17 ft | 24 kts | 41° |
| 2026-04-25 20:07 | 55.61601 | 12.63656 | 17 ft | 20 kts | 41° |
| 2026-04-25 20:07 | 55.61699 | 12.63806 | 17 ft | 19 kts | 41° |
| 2026-04-25 20:07 | 55.61803 | 12.63968 | 17 ft | 21 kts | 41° |
| 2026-04-25 20:07 | 55.61917 | 12.64110 | 19 ft | 20 kts | 25° |
| 2026-04-25 20:08 | 55.62047 | 12.64217 | 17 ft | 21 kts | 24° |
| 2026-04-25 20:08 | 55.62169 | 12.64318 | 18 ft | 17 kts | 25° |
| 2026-04-25 20:08 | 55.62258 | 12.64446 | 16 ft | 18 kts | 62° |
| 2026-04-25 20:08 | 55.62312 | 12.64656 | 17 ft | 18 kts | 66° |
| 2026-04-25 20:09 | 55.62349 | 12.64847 | 17 ft | 14 kts | 97° |
| 2026-04-25 20:09 | 55.62300 | 12.65009 | 17 ft | 16 kts | 122° |
| 2026-04-25 20:09 | 55.62293 | 12.65180 | 18 ft | 16 kts | 40° |
| 2026-04-25 20:09 | 55.62404 | 12.65202 | 19 ft | 17 kts | 358° |
| 2026-04-25 20:10 | 55.62518 | 12.65197 | 17 ft | 16 kts | 359° |
| 2026-04-25 20:10 | 55.62614 | 12.65196 | 18 ft | 12 kts | 7° |
| 2026-04-25 20:10 | 55.62652 | 12.65288 | 17 ft | 9 kts | 58° |
| 2026-04-25 20:10 | 55.62693 | 12.65311 | 17 ft | 1 kts | 17° |
| 2026-04-25 20:11 | 55.62707 | 12.65320 | 17 ft | 3 kts | 18° |
| 2026-04-25 20:11 | 55.62721 | 12.65328 | 17 ft | 0 kts | 17° |